Millersport, Ohio
Current Conditions -  °F | °C
As of 5:41 AM on Monday 26 Jan 2015 (Local Time) from KVTA Reporting Station
Light Snow Light Snow  
Wind Chill: 13°   Ceiling: 2300
Heat Index: 23°   Visibility: 5mi
Dew Point: 19°   Wind: 9mph
Humidity: 85%   Direction: 10°N
Pressure: 29.72"   Gusts: NA
Location:  39.9°N, 82.53°W
Report Text: KVTA 261041Z AUTO 01008KT 5SM -SN BR BKN023 BKN033 OVC045 M05/M07 A2972 RMK AO2 P0000 T10501072
Loading
Personal Weather Stations






























Interactive Weather Map New forecast layout! Learn more

10-Day Weather Forecast

Advertisements
Track Severe Weather on mobile